createdAt,value
2019-06-08T00:00:50.665Z,70.38
2019-06-08T00:03:21.015Z,70.42
2019-06-08T00:05:51.438Z,70.18
2019-06-08T00:08:21.488Z,70.56
2019-06-08T00:10:52.009Z,71.74
2019-06-08T00:13:23.205Z,71.56
2019-06-08T00:15:54.223Z,72.26
2019-06-08T00:18:26.758Z,72.26
2019-06-08T00:20:56.648Z,72.48
2019-06-08T00:23:29.236Z,72.92
2019-06-08T00:26:03.557Z,73.34
2019-06-08T00:28:34.474Z,72.73
2019-06-08T00:31:07.407Z,72.56
2019-06-08T00:33:38.554Z,72.87
2019-06-08T00:36:08.745Z,73.69
2019-06-08T00:38:38.596Z,73.45
2019-06-08T00:41:08.571Z,72.95
2019-06-08T00:43:38.825Z,73.58
2019-06-08T00:46:09.242Z,72.93
2019-06-08T00:48:39.310Z,72.85
2019-06-08T00:51:09.304Z,71.89
2019-06-08T00:53:39.464Z,71.96
2019-06-08T00:56:09.539Z,71.23
2019-06-08T00:58:39.625Z,71.48
2019-06-08T01:01:10.632Z,71.22
2019-06-08T01:03:41.370Z,71.35
2019-06-08T01:06:12.124Z,71.33
2019-06-08T01:08:42.296Z,71.31
2019-06-08T01:11:12.309Z,71.33
2019-06-08T01:13:42.891Z,71.89
2019-06-08T01:16:13.047Z,73.00
2019-06-08T01:18:42.997Z,71.92
2019-06-08T01:21:13.288Z,72.84
2019-06-08T01:23:43.508Z,72.07
2019-06-08T01:26:13.399Z,70.44
2019-06-08T01:28:43.718Z,70.28
2019-06-08T01:31:13.584Z,70.72
2019-06-08T01:33:43.590Z,70.70
2019-06-08T01:36:17.803Z,70.60
2019-06-08T01:38:48.116Z,71.51
2019-06-08T01:41:18.018Z,70.21
2019-06-08T01:43:48.475Z,69.61
2019-06-08T01:46:18.438Z,69.27
2019-06-08T01:48:48.638Z,68.47
2019-06-08T01:51:19.005Z,68.24
2019-06-08T01:53:49.107Z,67.23
2019-06-08T01:56:19.966Z,67.45
2019-06-08T01:58:51.890Z,67.59
2019-06-08T02:01:25.500Z,67.97
2019-06-08T02:03:58.909Z,67.78
2019-06-08T02:06:28.709Z,67.61
2019-06-08T02:09:01.625Z,67.95
2019-06-08T02:11:35.765Z,67.66
2019-06-08T02:14:08.579Z,67.43
2019-06-08T02:16:40.224Z,67.18
2019-06-08T02:19:10.097Z,67.50
2019-06-08T02:21:40.372Z,67.05
2019-06-08T02:24:11.387Z,66.47
2019-06-08T02:26:41.808Z,66.93
2019-06-08T02:29:12.643Z,67.22
2019-06-08T02:31:42.523Z,66.48
2019-06-08T02:34:12.475Z,66.82
2019-06-08T02:36:42.759Z,67.56
2019-06-08T02:39:14.041Z,67.42
2019-06-08T02:41:44.654Z,67.85
2019-06-08T02:44:14.755Z,67.18
2019-06-08T02:46:45.174Z,65.62
2019-06-08T02:49:16.694Z,66.52
2019-06-08T02:51:47.268Z,65.97
2019-06-08T02:54:18.484Z,66.16
2019-06-08T02:56:50.148Z,66.14
2019-06-08T02:59:23.119Z,65.70
2019-06-08T03:01:56.040Z,66.06
2019-06-08T03:04:28.156Z,66.60
2019-06-08T03:07:04.399Z,65.93
2019-06-08T03:09:36.514Z,66.40
2019-06-08T03:12:09.928Z,66.75
2019-06-08T03:14:43.126Z,66.21
2019-06-08T03:17:13.087Z,67.14
2019-06-08T03:19:43.245Z,67.18
2019-06-08T03:22:13.705Z,66.49
2019-06-08T03:24:44.183Z,66.63
2019-06-08T03:27:14.208Z,66.54
2019-06-08T03:29:44.534Z,66.64
2019-06-08T03:32:16.052Z,66.10
2019-06-08T03:34:54.718Z,66.00
2019-06-08T03:37:17.540Z,65.81
2019-06-08T03:39:47.585Z,65.12
2019-06-08T03:42:21.086Z,64.98
2019-06-08T03:44:51.077Z,65.01
2019-06-08T03:47:21.093Z,64.86
2019-06-08T03:49:57.017Z,63.72
2019-06-08T03:52:23.014Z,63.63
2019-06-08T03:54:52.952Z,63.32
2019-06-08T03:57:22.964Z,63.94
2019-06-08T03:59:53.107Z,63.12
2019-06-08T04:02:23.085Z,62.77
2019-06-08T04:04:53.653Z,62.88
2019-06-08T04:07:26.880Z,63.13
2019-06-08T04:09:56.811Z,63.96
2019-06-08T04:12:26.871Z,63.31
2019-06-08T04:14:56.714Z,62.99
2019-06-08T04:17:28.808Z,63.25
2019-06-08T04:20:10.455Z,62.88
2019-06-08T04:22:31.778Z,62.83
2019-06-08T04:25:09.748Z,63.28
2019-06-08T04:27:40.428Z,62.97
2019-06-08T04:30:12.134Z,62.64
2019-06-08T04:32:42.869Z,61.63
2019-06-08T04:35:13.168Z,61.55
2019-06-08T04:37:44.631Z,61.35
2019-06-08T04:40:17.609Z,61.76
2019-06-08T04:42:49.356Z,61.12
2019-06-08T04:45:19.594Z,61.32
2019-06-08T04:47:50.143Z,61.22
2019-06-08T04:50:23.329Z,61.21
2019-06-08T04:52:52.275Z,60.78
2019-06-08T04:55:25.316Z,61.10
2019-06-08T04:57:55.473Z,61.04
2019-06-08T05:00:25.548Z,60.45
2019-06-08T05:02:56.773Z,60.42
2019-06-08T05:05:26.699Z,60.72
2019-06-08T05:07:56.985Z,59.61
2019-06-08T05:10:30.092Z,59.81
2019-06-08T05:13:00.421Z,59.20
2019-06-08T05:15:30.681Z,58.05
2019-06-08T05:18:04.845Z,57.80
2019-06-08T05:20:39.410Z,56.74
2019-06-08T05:23:06.970Z,56.22
2019-06-08T05:25:37.087Z,55.65
2019-06-08T05:28:07.134Z,55.58
2019-06-08T05:30:39.109Z,54.80
2019-06-08T05:33:13.202Z,54.69
2019-06-08T05:35:43.642Z,53.76
2019-06-08T05:38:15.115Z,54.25
2019-06-08T05:40:45.633Z,54.47
2019-06-08T05:43:15.811Z,53.68
2019-06-08T05:45:45.865Z,54.19
2019-06-08T05:48:16.560Z,53.81
2019-06-08T05:51:00.504Z,53.29
2019-06-08T05:53:18.566Z,52.78
2019-06-08T05:55:50.130Z,51.92
2019-06-08T05:58:20.427Z,51.52
2019-06-08T06:00:50.748Z,50.84
2019-06-08T06:03:22.809Z,50.37
2019-06-08T06:05:53.407Z,50.47
2019-06-08T06:08:27.195Z,50.88
2019-06-08T06:10:59.182Z,51.23
2019-06-08T06:13:33.640Z,51.26
2019-06-08T06:16:10.105Z,51.26
2019-06-08T06:18:40.943Z,49.49
2019-06-08T06:21:14.638Z,49.75
2019-06-08T06:23:45.275Z,50.81
2019-06-08T06:26:17.047Z,50.23
2019-06-08T06:28:47.630Z,49.48
2019-06-08T06:31:18.347Z,49.45
2019-06-08T06:33:50.426Z,49.35
2019-06-08T06:36:21.821Z,48.15
2019-06-08T06:38:52.726Z,48.44
2019-06-08T06:41:22.692Z,48.64
2019-06-08T06:43:52.999Z,48.02
2019-06-08T06:46:24.114Z,47.91
2019-06-08T06:48:55.011Z,47.96
2019-06-08T06:51:26.919Z,47.80
2019-06-08T06:53:57.320Z,46.46
2019-06-08T06:56:31.061Z,47.11
2019-06-08T06:59:01.572Z,47.13
2019-06-08T07:01:32.865Z,46.34
2019-06-08T07:04:03.214Z,45.03
2019-06-08T07:06:34.249Z,45.22
2019-06-08T07:09:07.214Z,45.53
2019-06-08T07:11:37.574Z,45.87
2019-06-08T07:14:12.426Z,46.01
2019-06-08T07:16:42.501Z,46.64
2019-06-08T07:19:13.696Z,46.72
2019-06-08T07:21:46.049Z,46.26
2019-06-08T07:24:18.433Z,45.59
2019-06-08T07:26:54.563Z,44.87
2019-06-08T07:29:27.576Z,45.84
2019-06-08T07:32:00.035Z,44.80
2019-06-08T07:34:35.648Z,44.71
2019-06-08T07:37:07.284Z,45.02
2019-06-08T07:39:38.352Z,44.87
2019-06-08T07:42:08.563Z,45.04
2019-06-08T07:44:38.932Z,44.47
2019-06-08T07:47:09.205Z,44.96
2019-06-08T07:49:41.518Z,45.02
2019-06-08T07:52:16.179Z,45.18
2019-06-08T07:54:48.213Z,44.99
2019-06-08T07:57:22.617Z,44.38
2019-06-08T07:59:58.077Z,43.84
2019-06-08T08:02:29.635Z,43.29
2019-06-08T08:05:03.209Z,41.90
2019-06-08T08:07:33.274Z,42.46
2019-06-08T08:10:06.218Z,42.62
2019-06-08T08:12:37.519Z,42.71
2019-06-08T08:15:10.898Z,41.98
2019-06-08T08:17:40.933Z,41.92
2019-06-08T08:20:12.942Z,42.32
2019-06-08T08:22:43.069Z,41.96
2019-06-08T08:25:13.934Z,41.64
2019-06-08T08:27:47.947Z,41.16
2019-06-08T08:30:22.194Z,41.13
2019-06-08T08:32:54.229Z,41.47
2019-06-08T08:35:24.205Z,41.76
2019-06-08T08:37:57.036Z,41.46
2019-06-08T08:40:28.045Z,40.42
2019-06-08T08:42:58.742Z,40.70
2019-06-08T08:45:32.649Z,40.75
2019-06-08T08:48:21.126Z,39.88
2019-06-08T08:50:35.524Z,40.12
2019-06-08T08:53:08.202Z,39.09
2019-06-08T08:55:41.397Z,39.33
2019-06-08T08:58:11.950Z,39.24
2019-06-08T09:00:42.520Z,39.39
2019-06-08T09:03:29.101Z,39.70
2019-06-08T09:05:51.963Z,39.28
2019-06-08T09:08:23.386Z,39.40
2019-06-08T09:11:01.748Z,39.22
2019-06-08T09:13:32.444Z,38.76
2019-06-08T09:16:04.546Z,38.34
2019-06-08T09:18:37.332Z,38.30
2019-06-08T09:21:08.580Z,39.18
2019-06-08T09:23:39.433Z,39.47
2019-06-08T09:26:12.984Z,39.73
2019-06-08T09:28:43.985Z,38.08
2019-06-08T09:31:18.396Z,37.79
2019-06-08T09:34:05.417Z,37.41
2019-06-08T09:36:22.118Z,37.74
2019-06-08T09:38:55.175Z,38.43
2019-06-08T09:41:30.734Z,38.23
2019-06-08T09:44:05.236Z,38.58
2019-06-08T09:46:38.521Z,38.51
2019-06-08T09:49:11.820Z,38.51
2019-06-08T09:51:41.306Z,38.46
2019-06-08T09:54:13.129Z,38.00
2019-06-08T09:56:44.297Z,38.14
2019-06-08T09:59:19.050Z,37.69
2019-06-08T10:01:51.887Z,38.54
2019-06-08T10:04:25.655Z,37.55
2019-06-08T10:07:00.145Z,37.45
2019-06-08T10:09:32.388Z,37.88
2019-06-08T10:12:06.130Z,38.40
2019-06-08T10:14:38.161Z,38.33
2019-06-08T10:17:10.096Z,37.80
2019-06-08T10:19:40.484Z,38.78
2019-06-08T10:22:11.238Z,39.20
2019-06-08T10:24:49.097Z,38.83
2019-06-08T10:27:20.007Z,37.69
2019-06-08T10:29:55.141Z,37.12
2019-06-08T10:32:31.024Z,36.57
2019-06-08T10:35:10.476Z,36.94
2019-06-08T10:37:44.395Z,35.47
2019-06-08T10:40:18.738Z,34.92
2019-06-08T10:42:49.000Z,34.95
2019-06-08T10:45:22.497Z,35.05
2019-06-08T10:47:58.154Z,35.13
2019-06-08T10:50:32.268Z,33.71
2019-06-08T10:53:06.047Z,33.05
2019-06-08T10:55:37.776Z,32.63
2019-06-08T10:58:10.956Z,32.55
2019-06-08T11:00:39.905Z,32.58
2019-06-08T11:03:11.827Z,32.27
2019-06-08T11:05:43.958Z,32.63
2019-06-08T11:08:14.921Z,32.95
2019-06-08T11:17:48.699Z,31.91
2019-06-08T11:20:19.061Z,32.66
2019-06-08T11:22:50.154Z,32.34
2019-06-08T11:25:21.850Z,32.00
2019-06-08T11:27:51.914Z,31.72
2019-06-08T11:30:26.802Z,31.25
2019-06-08T11:32:57.879Z,32.08
2019-06-08T11:35:29.295Z,32.61
2019-06-08T11:38:00.191Z,32.76
2019-06-08T11:40:31.843Z,32.31
2019-06-08T11:43:02.295Z,32.82
2019-06-08T11:45:37.853Z,33.05
2019-06-08T11:48:08.734Z,32.66
2019-06-08T11:50:42.603Z,32.95
2019-06-08T11:53:17.992Z,33.40
2019-06-08T11:55:51.019Z,33.42
2019-06-08T11:58:23.107Z,33.24
2019-06-08T12:01:00.953Z,33.19
2019-06-08T12:03:30.498Z,33.76
2019-06-08T12:06:00.292Z,33.67
2019-06-08T12:08:30.684Z,34.08
2019-06-08T12:11:02.331Z,33.77
2019-06-08T12:13:32.641Z,34.12
2019-06-08T12:16:03.438Z,34.50
2019-06-08T12:18:34.069Z,34.51
2019-06-08T12:21:05.641Z,34.50
2019-06-08T12:23:36.303Z,34.29
2019-06-08T12:26:10.233Z,33.98
2019-06-08T12:28:43.782Z,34.75
2019-06-08T12:31:17.629Z,34.34
2019-06-08T12:33:48.633Z,34.04
2019-06-08T12:36:23.469Z,33.54
2019-06-08T12:38:54.007Z,33.65
2019-06-08T12:41:24.038Z,33.48
2019-06-08T12:43:57.951Z,34.05
2019-06-08T12:46:32.809Z,34.00
2019-06-08T12:49:05.792Z,33.67
2019-06-08T12:51:36.512Z,33.68
2019-06-08T12:54:08.454Z,33.64
2019-06-08T12:56:39.541Z,34.35
2019-06-08T12:59:14.569Z,33.49
2019-06-08T13:01:43.699Z,33.48
2019-06-08T13:04:18.764Z,32.99
2019-06-08T13:06:50.925Z,33.01
2019-06-08T13:09:21.519Z,32.89
2019-06-08T13:11:59.303Z,32.71
2019-06-08T13:14:32.827Z,32.93
2019-06-08T13:17:02.964Z,33.56
2019-06-08T13:19:34.758Z,33.68
2019-06-08T13:22:09.332Z,33.50
2019-06-08T13:24:41.720Z,33.18
2019-06-08T13:27:14.740Z,33.29
2019-06-08T13:29:43.850Z,33.20
2019-06-08T13:32:20.225Z,33.30
2019-06-08T13:34:53.259Z,33.52
2019-06-08T13:37:24.970Z,33.03
2019-06-08T13:39:59.311Z,32.56
2019-06-08T13:42:38.321Z,32.85
2019-06-08T13:45:09.536Z,33.41
2019-06-08T13:47:45.424Z,32.74
2019-06-08T13:50:22.647Z,32.33
2019-06-08T13:52:58.739Z,32.43
2019-06-08T13:55:48.622Z,32.14
2019-06-08T13:58:07.953Z,32.00
2019-06-08T14:00:43.759Z,31.78
2019-06-08T14:03:13.945Z,31.82
2019-06-08T14:05:48.630Z,32.28
2019-06-08T14:08:22.217Z,31.37
2019-06-08T14:10:52.129Z,30.61
2019-06-08T14:13:27.777Z,30.23
2019-06-08T14:15:58.576Z,30.39
2019-06-08T14:18:34.217Z,30.09
2019-06-08T14:21:08.757Z,30.69
2019-06-08T14:23:41.478Z,30.05
2019-06-08T14:26:12.138Z,30.17
2019-06-08T14:28:43.019Z,30.03
2019-06-08T14:31:13.528Z,29.85
2019-06-08T14:33:44.306Z,29.44
2019-06-08T14:36:19.717Z,29.57
2019-06-08T14:38:49.762Z,29.40
2019-06-08T14:41:21.001Z,29.58
2019-06-08T14:43:53.566Z,29.54
2019-06-08T14:46:24.395Z,29.82
2019-06-08T14:48:58.384Z,29.82
2019-06-08T14:51:48.172Z,29.81
2019-06-08T14:54:25.154Z,29.87
2019-06-08T14:56:53.715Z,30.28
2019-06-08T14:59:25.352Z,29.90
2019-06-08T15:01:55.688Z,29.88
2019-06-08T15:04:36.314Z,29.89
2019-06-08T15:07:02.236Z,29.33
2019-06-08T15:09:32.829Z,29.77
2019-06-08T15:12:04.700Z,29.45
2019-06-08T15:14:38.378Z,29.49
2019-06-08T15:17:11.621Z,29.03
2019-06-08T15:19:43.541Z,28.91
2019-06-08T15:22:13.485Z,28.76
2019-06-08T15:24:47.884Z,29.12
2019-06-08T15:27:22.647Z,29.63
2019-06-08T15:29:58.629Z,29.34
2019-06-08T15:32:33.698Z,29.48
2019-06-08T15:35:08.014Z,28.72
2019-06-08T15:37:41.849Z,28.69
2019-06-08T15:40:17.696Z,28.79
2019-06-08T15:42:50.672Z,29.05
2019-06-08T15:45:22.089Z,28.85
2019-06-08T15:47:54.182Z,28.76
2019-06-08T15:50:28.282Z,28.78
2019-06-08T15:53:00.174Z,29.05
2019-06-08T15:55:34.498Z,30.16
2019-06-08T15:58:09.034Z,28.91
2019-06-08T16:00:38.924Z,29.09
2019-06-08T16:03:10.678Z,28.85
2019-06-08T16:05:44.091Z,28.56
2019-06-08T16:08:18.678Z,28.07
2019-06-08T16:10:50.520Z,28.41
2019-06-08T16:13:21.519Z,28.86
2019-06-08T16:15:53.142Z,28.42
2019-06-08T16:18:35.977Z,28.01
2019-06-08T16:21:07.763Z,28.55
2019-06-08T16:23:42.130Z,28.23
2019-06-08T16:26:15.130Z,28.71
2019-06-08T16:28:49.318Z,28.90
2019-06-08T16:31:19.879Z,28.89
2019-06-08T16:33:50.574Z,28.91
2019-06-08T16:36:24.452Z,28.93
2019-06-08T16:39:00.385Z,29.10
2019-06-08T16:41:32.116Z,28.39
2019-06-08T16:44:06.956Z,27.87
2019-06-08T16:46:36.722Z,27.74
2019-06-08T16:49:08.286Z,27.52
2019-06-08T16:51:38.291Z,27.67
2019-06-08T16:54:10.647Z,27.72
2019-06-08T16:56:41.216Z,27.74
2019-06-08T16:59:14.262Z,28.27
2019-06-08T17:01:46.096Z,28.60
2019-06-08T17:04:17.943Z,28.78
2019-06-08T17:06:48.732Z,28.82
2019-06-08T17:09:18.853Z,28.80
2019-06-08T17:11:50.495Z,28.58
2019-06-08T17:14:25.506Z,28.47
2019-06-08T17:17:00.270Z,28.34
2019-06-08T17:19:32.130Z,27.92
2019-06-08T17:22:02.584Z,27.86
2019-06-08T17:24:32.888Z,27.48
2019-06-08T17:27:03.841Z,27.02
2019-06-08T17:29:34.915Z,27.02
2019-06-08T17:32:05.588Z,26.88
2019-06-08T17:34:36.601Z,26.53
2019-06-08T17:40:13.705Z,26.06
2019-06-08T17:42:46.018Z,26.29
2019-06-08T17:45:16.774Z,27.06
2019-06-08T17:47:49.259Z,27.63
2019-06-08T17:50:21.239Z,28.38
2019-06-08T17:52:54.239Z,29.18
2019-06-08T17:55:25.779Z,29.38
2019-06-08T17:57:56.003Z,30.09
2019-06-08T18:00:27.710Z,30.41
2019-06-08T18:03:00.593Z,30.80
2019-06-08T18:05:39.368Z,31.69
2019-06-08T18:08:12.804Z,32.21
2019-06-08T18:10:48.301Z,32.62
2019-06-08T18:13:19.807Z,33.10
2019-06-08T18:15:52.799Z,33.94
2019-06-08T18:18:40.128Z,34.06
2019-06-08T18:21:12.571Z,34.52
2019-06-08T18:23:44.976Z,35.01
2019-06-08T18:26:17.272Z,35.55
2019-06-08T18:28:48.545Z,36.10
2019-06-08T18:31:20.236Z,36.09
2019-06-08T18:33:51.003Z,36.64
2019-06-08T18:36:23.664Z,36.98
2019-06-08T18:38:58.171Z,37.21
2019-06-08T18:41:28.667Z,37.32
2019-06-08T18:44:02.673Z,37.65
2019-06-08T18:46:37.975Z,37.82
2019-06-08T18:49:09.620Z,37.73
2019-06-08T18:51:42.454Z,37.99
2019-06-08T18:54:14.944Z,38.10
2019-06-08T18:56:45.970Z,38.39
2019-06-08T18:59:20.081Z,38.56
2019-06-08T19:01:50.488Z,38.93
2019-06-08T19:04:20.568Z,38.86
2019-06-08T19:06:51.509Z,39.25
2019-06-08T19:09:23.549Z,39.37
2019-06-08T19:11:53.893Z,39.87
2019-06-08T19:14:28.657Z,39.96
2019-06-08T19:16:59.533Z,40.37
2019-06-08T19:19:31.436Z,40.77
2019-06-08T19:22:12.365Z,41.13
2019-06-08T19:24:50.466Z,41.75
2019-06-08T19:27:24.951Z,41.93
2019-06-08T19:29:59.075Z,42.11
2019-06-08T19:32:31.062Z,42.19
2019-06-08T19:35:34.889Z,42.61
2019-06-08T19:38:08.769Z,42.58
2019-06-08T19:40:41.006Z,42.92
2019-06-08T19:43:15.135Z,42.46
2019-06-08T19:45:52.094Z,42.78
2019-06-08T19:48:23.397Z,43.01
2019-06-08T19:50:58.186Z,42.68
2019-06-08T19:53:31.958Z,42.92
2019-06-08T19:56:12.367Z,43.06
2019-06-08T19:58:57.102Z,43.27
2019-06-08T20:01:20.992Z,43.42
2019-06-08T20:03:53.675Z,43.59
2019-06-08T20:06:28.118Z,43.97
2019-06-08T20:09:07.927Z,43.99
2019-06-08T20:11:54.173Z,43.93
2019-06-08T20:14:19.902Z,44.03
2019-06-08T20:16:51.302Z,44.40
2019-06-08T20:19:27.967Z,44.53
2019-06-08T20:22:09.955Z,44.22
2019-06-08T20:24:42.447Z,43.98
2019-06-08T20:27:17.321Z,44.10
2019-06-08T20:29:58.042Z,44.18
2019-06-08T20:32:31.232Z,44.19
2019-06-08T20:35:02.882Z,44.34
2019-06-08T20:37:37.634Z,44.24
2019-06-08T20:40:18.117Z,44.29
2019-06-08T20:42:53.320Z,44.53
2019-06-08T20:45:22.452Z,44.54
2019-06-08T20:47:53.914Z,44.66
2019-06-08T20:50:26.995Z,44.78
2019-06-08T20:52:58.076Z,45.03
2019-06-08T20:55:30.166Z,45.51
2019-06-08T20:58:02.295Z,45.76
2019-06-08T21:00:32.303Z,46.11
2019-06-08T21:03:03.331Z,46.23
2019-06-08T21:05:35.103Z,46.54
2019-06-08T21:08:08.559Z,46.72
2019-06-08T21:10:38.650Z,46.72
2019-06-08T21:13:09.033Z,47.07
2019-06-08T21:15:40.165Z,47.32
2019-06-08T21:18:13.215Z,47.39
2019-06-08T21:20:43.067Z,47.47
2019-06-08T21:23:16.962Z,47.62
2019-06-08T21:25:50.765Z,47.67
2019-06-08T21:28:21.454Z,48.06
2019-06-08T21:30:55.780Z,48.01
2019-06-08T21:33:25.382Z,48.15
2019-06-08T21:36:03.524Z,48.20
2019-06-08T21:38:28.755Z,48.34
2019-06-08T21:41:02.505Z,48.65
2019-06-08T21:43:34.169Z,48.69
2019-06-08T21:46:04.763Z,49.02
2019-06-08T21:48:34.963Z,49.16
2019-06-08T21:51:08.028Z,49.31
2019-06-08T21:53:38.146Z,49.71
2019-06-08T21:56:08.408Z,49.89
2019-06-08T21:58:38.828Z,50.13
2019-06-08T22:01:09.751Z,50.36
2019-06-08T22:03:39.731Z,50.75
2019-06-08T22:06:10.315Z,51.00
2019-06-08T22:08:40.356Z,51.13
2019-06-08T22:11:10.281Z,51.07
2019-06-08T22:13:41.029Z,51.35
2019-06-08T22:16:12.107Z,51.40
2019-06-08T22:18:42.571Z,51.72
2019-06-08T22:21:12.949Z,51.78
2019-06-08T22:23:42.930Z,51.76
2019-06-08T22:26:12.904Z,51.79
2019-06-08T22:28:43.057Z,51.88
2019-06-08T22:31:13.028Z,51.84
2019-06-08T22:33:42.857Z,51.95
2019-06-08T22:36:12.981Z,52.18
2019-06-08T22:38:44.851Z,52.47
2019-06-08T22:41:18.123Z,52.63
2019-06-08T22:43:48.316Z,52.73
2019-06-08T22:46:18.368Z,52.91
2019-06-08T22:48:48.676Z,53.12
2019-06-08T22:51:18.889Z,53.11
2019-06-08T22:53:48.926Z,53.21
2019-06-08T22:56:22.355Z,53.58
2019-06-08T22:58:54.248Z,53.58
2019-06-08T23:01:24.026Z,53.76
2019-06-08T23:03:56.872Z,53.89
2019-06-08T23:06:28.122Z,53.99
2019-06-08T23:09:00.745Z,54.17
2019-06-08T23:11:30.321Z,54.24
2019-06-08T23:14:01.428Z,54.38
2019-06-08T23:16:31.984Z,54.42
2019-06-08T23:19:05.270Z,54.61
2019-06-08T23:21:38.101Z,54.67
2019-06-08T23:24:08.478Z,54.77
2019-06-08T23:26:38.804Z,54.94
2019-06-08T23:29:09.743Z,55.02
2019-06-08T23:31:39.865Z,55.14
2019-06-08T23:34:11.775Z,55.30
2019-06-08T23:36:57.526Z,55.47
2019-06-08T23:39:13.992Z,55.54
2019-06-08T23:41:43.936Z,55.84
2019-06-08T23:44:14.452Z,56.04
2019-06-08T23:46:44.390Z,56.13
2019-06-08T23:49:14.320Z,56.27
2019-06-08T23:51:44.216Z,56.32
2019-06-08T23:54:14.177Z,56.36
2019-06-08T23:56:44.463Z,56.34
2019-06-08T23:59:14.561Z,56.34
